Time;durP1;ratioP1;P1;durP2;ratioP2;P2;SDS_P1;SDS_P2;PMS_P1;PMS_P2;Temp;Humidity;BMP_temperature;BMP_pressure;BME280_temperature;BME280_humidity;BME280_pressure;Samples;Min_cycle;Max_cycle;Signal;HPM_P1;HPM_P2
2021/12/30 00:01:04;;;;;;;;;6.00;6.00;;;;;9.18;100.00;100868.31;4989620;28;10169;-70
2021/12/30 00:03:31;;;;;;;;;9.00;8.00;;;;;9.19;100.00;100869.16;4988222;28;10103;-70
2021/12/30 00:05:58;;;;;;;;;11.00;9.50;;;;;9.22;100.00;100869.63;4989738;28;10174;-70
2021/12/30 00:08:24;;;;;;;;;12.25;7.00;;;;;9.28;100.00;100869.91;5003950;28;10047;-71
2021/12/30 00:10:51;;;;;;;;;13.00;12.00;;;;;9.32;100.00;100880.19;4990499;28;10194;-71
2021/12/30 00:13:19;;;;;;;;;8.00;6.00;;;;;9.31;100.00;100880.38;4989597;28;11013;-70
2021/12/30 00:15:46;;;;;;;;;14.00;9.25;;;;;9.33;100.00;100873.75;4989230;28;9990;-71
2021/12/30 00:18:13;;;;;;;;;13.00;12.00;;;;;9.34;100.00;100875.44;4989927;28;10898;-70
2021/12/30 00:20:39;;;;;;;;;14.50;13.00;;;;;9.36;100.00;100873.38;4989803;28;10304;-70
2021/12/30 00:23:08;;;;;;;;;20.25;14.50;;;;;9.41;100.00;100870.97;4989842;28;10247;-71
2021/12/30 00:25:41;;;;;;;;;13.00;10.25;;;;;9.43;100.00;100863.56;4990114;28;10305;-70
2021/12/30 00:28:18;;;;;;;;;13.50;10.75;;;;;9.45;100.00;100864.22;4988344;28;10322;-71
2021/12/30 00:30:46;;;;;;;;;12.75;11.25;;;;;9.46;100.00;100865.06;5002871;28;10205;-71
2021/12/30 00:33:13;;;;;;;;;15.00;9.50;;;;;9.49;100.00;100862.00;4989619;28;10102;-70
2021/12/30 00:35:45;;;;;;;;;12.00;11.00;;;;;9.52;100.00;100864.31;4989341;28;10121;-70
2021/12/30 00:38:12;;;;;;;;;10.00;10.00;;;;;9.54;100.00;100867.69;4989429;28;10101;-70
2021/12/30 00:40:39;;;;;;;;;12.00;9.75;;;;;9.61;100.00;100870.50;4989436;28;10089;-71
2021/12/30 00:43:07;;;;;;;;;16.00;13.75;;;;;9.61;100.00;100875.91;4989083;28;10859;-70
2021/12/30 00:45:34;;;;;;;;;21.75;13.50;;;;;9.61;100.00;100871.34;4989515;28;10269;-70
2021/12/30 00:48:03;;;;;;;;;15.75;12.00;;;;;9.63;100.00;100887.38;4987628;28;10203;-69
2021/12/30 00:50:31;;;;;;;;;8.00;8.00;;;;;9.64;100.00;100886.34;4987560;28;10169;-69
2021/12/30 00:53:01;;;;;;;;;11.25;9.75;;;;;9.66;100.00;100887.00;4988726;28;9960;-70
2021/12/30 00:55:27;;;;;;;;;13.75;12.00;;;;;9.70;100.00;100893.75;4988535;28;9918;-70
2021/12/30 00:57:54;;;;;;;;;10.25;10.25;;;;;9.71;100.00;100888.16;4987636;28;10237;-70
2021/12/30 01:00:22;;;;;;;;;10.25;7.50;;;;;9.72;100.00;100895.25;4988405;28;10675;-70
2021/12/30 01:02:50;;;;;;;;;12.50;12.25;;;;;9.76;100.00;100901.13;4989245;28;9980;-70
2021/12/30 01:05:17;;;;;;;;;13.25;11.00;;;;;9.78;100.00;100899.91;4989350;28;10090;-70
2021/12/30 01:07:43;;;;;;;;;11.50;8.00;;;;;9.82;100.00;100905.78;4986633;28;10149;-70
2021/12/30 01:10:14;;;;;;;;;7.25;7.00;;;;;9.82;100.00;100900.38;4988888;28;9923;-70
2021/12/30 01:12:41;;;;;;;;;10.50;9.00;;;;;9.86;100.00;100909.81;4988466;28;9949;-69
2021/12/30 01:15:11;;;;;;;;;16.25;15.25;;;;;9.87;100.00;100896.09;5002008;28;9946;-70
2021/12/30 01:17:53;;;;;;;;;11.25;9.25;;;;;9.92;100.00;100900.16;5003438;28;10037;-70
2021/12/30 01:20:20;;;;;;;;;10.00;7.50;;;;;9.94;100.00;100907.06;4989257;28;10009;-70
2021/12/30 01:22:49;;;;;;;;;9.75;7.25;;;;;9.95;100.00;100914.16;4988456;28;10030;-70
2021/12/30 01:25:16;;;;;;;;;15.00;8.00;;;;;9.98;100.00;100913.78;4988237;28;9892;-70
2021/12/30 01:27:43;;;;;;;;;13.50;6.50;;;;;9.99;100.00;100914.59;4988540;28;9972;-70
2021/12/30 01:30:14;;;;;;;;;10.25;8.00;;;;;10.01;100.00;100923.38;4988774;28;9932;-70
2021/12/30 01:32:41;;;;;;;;;7.50;5.75;;;;;9.99;100.00;100920.84;4988524;28;10085;-70
2021/12/30 01:35:12;;;;;;;;;5.00;5.00;;;;;9.98;100.00;100919.19;4987388;28;9756;-70
2021/12/30 01:37:39;;;;;;;;;7.50;6.25;;;;;10.01;100.00;100926.91;5001814;28;9700;-70
2021/12/30 01:40:12;;;;;;;;;6.50;6.00;;;;;10.02;100.00;100922.34;4988053;28;9842;-70
2021/12/30 01:42:39;;;;;;;;;12.00;9.00;;;;;10.05;100.00;100935.50;4988294;28;9833;-70
2021/12/30 01:45:07;;;;;;;;;8.50;5.75;;;;;10.06;100.00;100942.59;4988117;28;9987;-70
2021/12/30 01:47:34;;;;;;;;;11.50;10.50;;;;;10.07;100.00;100945.13;4987524;28;9850;-70
2021/12/30 01:50:00;;;;;;;;;8.00;7.50;;;;;10.10;100.00;100950.16;4988370;28;9877;-70
2021/12/30 01:52:27;;;;;;;;;10.00;8.25;;;;;10.11;100.00;100949.13;4988093;28;9673;-70
2021/12/30 01:54:53;;;;;;;;;11.00;9.00;;;;;10.09;100.00;100940.38;4988325;28;9879;-70
2021/12/30 01:57:20;;;;;;;;;5.25;5.25;;;;;10.14;100.00;100937.09;4987905;28;9872;-70
2021/12/30 01:59:47;;;;;;;;;12.50;7.00;;;;;10.17;100.00;100936.75;4988063;28;9759;-70
2021/12/30 02:02:14;;;;;;;;;5.25;5.00;;;;;10.20;100.00;100949.06;4987854;28;9604;-70
2021/12/30 02:04:44;;;;;;;;;7.50;6.75;;;;;10.23;100.00;100951.44;5002338;28;9532;-70
2021/12/30 02:07:11;;;;;;;;;8.50;5.25;;;;;10.21;100.00;100948.09;4986374;28;9770;-70
2021/12/30 02:09:37;;;;;;;;;3.50;3.50;;;;;10.21;100.00;100953.50;5002328;28;9735;-70
2021/12/30 02:12:05;;;;;;;;;4.00;4.00;;;;;10.25;100.00;100946.69;4987888;28;9595;-70
2021/12/30 02:14:35;;;;;;;;;5.00;4.75;;;;;10.24;100.00;100928.78;4985620;28;9545;-70
2021/12/30 02:17:04;;;;;;;;;9.00;9.00;;;;;10.27;100.00;100933.81;4986977;28;9623;-70
2021/12/30 02:19:32;;;;;;;;;7.75;7.00;;;;;10.28;100.00;100928.22;4987145;28;9760;-70
2021/12/30 02:21:58;;;;;;;;;11.00;5.00;;;;;10.29;100.00;100935.31;5003328;28;9820;-70
2021/12/30 02:24:25;;;;;;;;;7.00;7.00;;;;;10.29;100.00;100932.59;4986713;28;9673;-70
2021/12/30 02:26:52;;;;;;;;;8.25;7.25;;;;;10.33;100.00;100930.34;4987683;28;9715;-70
2021/12/30 02:29:18;;;;;;;;;5.50;5.50;;;;;10.36;100.00;100935.41;4985870;28;9818;-70
2021/12/30 02:31:45;;;;;;;;;5.00;5.00;;;;;10.36;100.00;100943.50;4985302;28;9689;-71
2021/12/30 02:34:12;;;;;;;;;7.75;5.50;;;;;10.37;100.00;100946.03;4985859;28;9778;-70
2021/12/30 02:36:47;;;;;;;;;9.50;7.25;;;;;10.40;100.00;100944.81;4987088;28;9784;-70
2021/12/30 02:39:14;;;;;;;;;7.50;3.25;;;;;10.43;100.00;100955.31;4987650;28;9783;-70
2021/12/30 02:41:41;;;;;;;;;8.75;7.00;;;;;10.45;100.00;100953.25;4987031;28;9598;-70
2021/12/30 02:44:08;;;;;;;;;5.00;3.50;;;;;10.46;100.00;100955.78;4985851;28;9782;-71
2021/12/30 02:46:37;;;;;;;;;8.75;7.00;;;;;10.49;100.00;100959.97;4984889;28;9893;-70
2021/12/30 02:49:05;;;;;;;;;8.00;6.75;;;;;10.54;100.00;100967.53;4987053;28;9774;-71
2021/12/30 02:51:32;;;;;;;;;8.25;7.00;;;;;10.56;100.00;100973.59;4985892;28;9827;-70
2021/12/30 02:54:00;;;;;;;;;7.25;7.00;;;;;10.58;100.00;100980.50;4986102;28;9767;-70
2021/12/30 02:56:27;;;;;;;;;9.50;8.50;;;;;10.60;100.00;100978.44;4986994;28;9853;-70
2021/12/30 02:58:54;;;;;;;;;5.50;5.50;;;;;10.61;100.00;100969.28;4985728;28;9725;-70
2021/12/30 03:01:26;;;;;;;;;5.50;5.00;;;;;10.64;100.00;100974.34;4986160;28;9623;-70
2021/12/30 03:03:55;;;;;;;;;4.75;4.00;;;;;10.65;100.00;100965.19;5001400;28;9542;-70
2021/12/30 03:06:22;;;;;;;;;7.50;7.50;;;;;10.66;100.00;100972.31;5001700;28;9607;-70
2021/12/30 03:08:50;;;;;;;;;11.00;8.75;;;;;10.66;100.00;100982.31;4986865;28;9558;-70
2021/12/30 03:11:19;;;;;;;;;8.25;7.00;;;;;10.74;100.00;100990.31;4987289;28;9784;-70
2021/12/30 03:13:46;;;;;;;;;7.25;6.50;;;;;10.76;100.00;100985.56;5001492;28;9682;-70
2021/12/30 03:16:23;;;;;;;;;8.50;7.00;;;;;10.72;100.00;100987.81;4985221;28;9692;-69
2021/12/30 03:18:50;;;;;;;;;10.25;7.75;;;;;10.75;100.00;100987.44;4986409;28;9823;-70
2021/12/30 03:21:19;;;;;;;;;5.50;5.00;;;;;10.74;100.00;100974.06;5001490;28;10505;-70
2021/12/30 03:23:47;;;;;;;;;8.25;6.00;;;;;10.78;100.00;100959.97;4985696;28;9605;-70
2021/12/30 03:26:14;;;;;;;;;6.50;6.50;;;;;10.85;100.00;100956.50;4987206;28;10264;-70
2021/12/30 03:28:42;;;;;;;;;5.50;4.75;;;;;10.85;100.00;100964.63;4986641;28;9550;-69
2021/12/30 03:31:10;;;;;;;;;7.75;7.00;;;;;10.86;100.00;100955.47;4986854;28;9386;-70
2021/12/30 03:33:37;;;;;;;;;7.75;6.25;;;;;10.84;100.00;100957.53;4985388;28;9496;-71
2021/12/30 03:36:06;;;;;;;;;9.00;7.75;;;;;10.86;100.00;100953.59;4984975;28;9712;-70
2021/12/30 03:38:36;;;;;;;;;8.25;6.00;;;;;10.86;100.00;100955.47;4985089;28;9626;-70
2021/12/30 03:41:04;;;;;;;;;10.75;7.00;;;;;10.86;100.00;100958.19;4987143;28;9538;-70
2021/12/30 03:43:31;;;;;;;;;6.67;6.00;;;;;10.84;100.00;100962.94;4987134;28;9903;-69
2021/12/30 03:45:58;;;;;;;;;8.50;7.75;;;;;10.82;100.00;100962.28;4985657;28;9402;-70
2021/12/30 03:48:32;;;;;;;;;9.75;8.25;;;;;10.83;100.00;100962.09;4984578;28;9558;-70
2021/12/30 03:51:06;;;;;;;;;6.50;6.25;;;;;10.80;100.00;100959.78;4986109;28;9608;-70
2021/12/30 03:53:38;;;;;;;;;10.00;7.25;;;;;10.81;100.00;100972.28;4986460;28;9633;-70
2021/12/30 03:56:10;;;;;;;;;12.00;11.75;;;;;10.80;100.00;100981.44;4986758;28;9677;-70
2021/12/30 03:58:39;;;;;;;;;14.75;14.25;;;;;10.82;100.00;100982.09;4968935;28;9872;-70
2021/12/30 04:01:07;;;;;;;;;13.50;12.25;;;;;10.85;100.00;100986.28;4969359;28;9978;-70
2021/12/30 04:03:34;;;;;;;;;10.75;10.00;;;;;10.81;100.00;100982.28;5005506;28;10415;-70
2021/12/30 04:06:00;;;;;;;;;11.25;10.00;;;;;10.81;100.00;100993.94;4989911;28;9706;-70
2021/12/30 04:08:27;;;;;;;;;13.50;13.00;;;;;10.81;100.00;100988.53;4987842;28;9648;-70
2021/12/30 04:10:56;;;;;;;;;16.00;11.00;;;;;10.87;100.00;100992.34;4989963;28;9831;-70
2021/12/30 04:13:23;;;;;;;;;16.25;10.75;;;;;10.84;100.00;100988.16;4989295;28;9678;-70
2021/12/30 04:15:49;;;;;;;;;12.00;11.00;;;;;10.84;100.00;100985.44;4990192;28;9702;-70
2021/12/30 04:18:16;;;;;;;;;14.50;13.25;;;;;10.86;100.00;100975.28;4989472;28;9765;-69
2021/12/30 04:20:42;;;;;;;;;10.00;10.00;;;;;10.87;100.00;100968.81;4988902;28;9997;-70
2021/12/30 04:23:09;;;;;;;;;12.50;9.25;;;;;10.92;100.00;100971.00;4989738;28;9550;-69
2021/12/30 04:25:35;;;;;;;;;7.50;7.25;;;;;10.93;100.00;100967.25;4988643;28;9857;-70
2021/12/30 04:28:02;;;;;;;;;15.75;13.75;;;;;10.94;100.00;100960.81;4989596;28;9564;-70
2021/12/30 04:30:28;;;;;;;;;13.00;10.00;;;;;10.98;100.00;100970.22;4989551;28;10558;-70
2021/12/30 04:32:55;;;;;;;;;9.00;9.00;;;;;11.00;100.00;100965.47;4988299;28;9594;-70
2021/12/30 04:35:21;;;;;;;;;5.00;5.00;;;;;11.01;100.00;100962.56;4989817;28;9686;-70
2021/12/30 04:37:48;;;;;;;;;5.00;5.00;;;;;11.04;100.00;100969.47;5003007;28;9595;-70
2021/12/30 04:40:14;;;;;;;;;6.25;5.75;;;;;11.06;100.00;100968.25;4989467;28;9458;-69
2021/12/30 04:42:42;;;;;;;;;9.75;6.75;;;;;11.10;100.00;100969.53;4987529;28;9626;-70
2021/12/30 04:45:11;;;;;;;;;4.00;4.00;;;;;11.13;100.00;100971.03;4989271;28;9718;-70
2021/12/30 04:47:39;;;;;;;;;8.50;8.00;;;;;11.13;100.00;100967.47;5003701;28;9453;-70
2021/12/30 04:50:08;;;;;;;;;3.33;3.33;;;;;11.13;100.00;100970.19;4989478;28;9589;-70
2021/12/30 04:52:34;;;;;;;;;8.00;6.50;;;;;11.14;100.00;100971.88;4988006;28;9412;-70
2021/12/30 04:55:01;;;;;;;;;7.00;6.50;;;;;11.19;100.00;100958.63;4989147;28;9464;-70
2021/12/30 04:57:27;;;;;;;;;6.50;4.25;;;;;11.19;100.00;100981.13;4988782;28;9540;-70
2021/12/30 04:59:54;;;;;;;;;4.00;4.00;;;;;11.18;100.00;100967.78;4989427;28;9588;-70
2021/12/30 05:02:22;;;;;;;;;1.00;1.00;;;;;11.17;100.00;100966.09;4989268;28;10009;-70
2021/12/30 05:04:49;;;;;;;;;2.33;2.00;;;;;11.17;100.00;100969.66;4989452;28;9169;-69
2021/12/30 05:07:15;;;;;;;;;3.67;2.67;;;;;11.16;100.00;100957.13;4988372;28;9372;-70
2021/12/30 05:09:41;;;;;;;;;4.67;2.00;;;;;11.17;100.00;100972.38;4988462;28;9279;-70
2021/12/30 05:12:08;;;;;;;;;2.00;2.00;;;;;11.16;100.00;100973.41;4988679;28;9372;-70
2021/12/30 05:14:34;;;;;;;;;2.67;2.67;;;;;11.16;100.00;100970.69;4988197;28;9254;-70
2021/12/30 05:17:03;;;;;;;;;5.33;3.00;;;;;11.14;100.00;100975.41;4988231;28;9450;-70
2021/12/30 05:19:30;;;;;;;;;3.67;3.00;;;;;11.20;100.00;100973.84;4988057;28;9546;-70
2021/12/30 05:21:57;;;;;;;;;2.00;1.00;;;;;11.22;100.00;100977.22;5003196;28;9500;-70
2021/12/30 05:24:23;;;;;;;;;2.00;2.00;;;;;11.22;100.00;100971.78;4987917;28;9436;-70
2021/12/30 05:26:50;;;;;;;;;2.00;2.00;;;;;11.21;100.00;100976.38;4987906;28;9979;-70
2021/12/30 05:29:17;;;;;;;;;3.67;2.00;;;;;11.24;100.00;100967.84;4987664;28;9349;-70
2021/12/30 05:31:43;;;;;;;;;1.00;1.00;;;;;11.27;100.00;100958.50;4987993;28;9072;-70
2021/12/30 05:34:10;;;;;;;;;2.00;2.00;;;;;11.27;100.00;100961.22;4989915;28;9169;-70
2021/12/30 05:36:36;;;;;;;;;3.00;2.00;;;;;11.32;100.00;100965.03;4987293;28;9202;-70
2021/12/30 05:39:03;;;;;;;;;1.00;1.00;;;;;11.35;100.00;100963.78;4988272;28;9248;-70
2021/12/30 05:41:30;;;;;;;;;1.00;1.00;;;;;11.35;100.00;100956.50;4988305;28;9174;-70
2021/12/30 05:43:58;;;;;;;;;1.00;0.00;;;;;11.42;100.00;100950.34;4988497;28;9085;-70
2021/12/30 05:46:24;;;;;;;;;1.33;1.33;;;;;11.43;100.00;100957.44;4987717;28;9109;-70
2021/12/30 05:48:51;;;;;;;;;1.33;0.33;;;;;11.44;100.00;100959.13;4987975;28;9155;-70
2021/12/30 05:51:17;;;;;;;;;0.00;0.00;;;;;11.47;100.00;100962.28;4988184;28;9103;-70
2021/12/30 05:53:44;;;;;;;;;1.00;1.00;;;;;11.52;100.00;100948.13;4988150;28;8987;-70
2021/12/30 05:56:10;;;;;;;;;2.67;1.67;;;;;11.57;100.00;100964.66;4988213;28;9032;-70
2021/12/30 05:58:36;;;;;;;;;0.75;0.75;;;;;11.56;100.00;100950.28;4986919;28;9353;-70
2021/12/30 06:01:03;;;;;;;;;0.33;0.33;;;;;11.59;100.00;100947.16;4987037;28;8892;-70
2021/12/30 06:03:30;;;;;;;;;2.00;1.00;;;;;11.61;100.00;100953.25;5001813;28;9024;-70
2021/12/30 06:05:56;;;;;;;;;1.00;0.67;;;;;11.65;100.00;100970.00;4986437;28;10003;-70
2021/12/30 06:08:23;;;;;;;;;2.00;2.00;;;;;11.65;100.00;100970.81;4987641;28;9059;-70
2021/12/30 06:10:49;;;;;;;;;0.67;0.67;;;;;11.67;100.00;100976.06;4986989;28;9255;-70
2021/12/30 06:13:15;;;;;;;;;1.00;1.00;;;;;11.69;100.00;100985.69;5002324;28;9990;-70
2021/12/30 06:15:42;;;;;;;;;1.00;1.00;;;;;11.67;100.00;100986.91;4987915;28;9297;-70
2021/12/30 06:18:08;;;;;;;;;3.00;3.00;;;;;11.68;100.00;100975.03;5001889;28;9001;-70
2021/12/30 06:20:35;;;;;;;;;3.00;3.00;;;;;11.68;100.00;101002.97;4986395;28;9184;-70
2021/12/30 06:23:02;;;;;;;;;3.00;2.00;;;;;11.65;100.00;100986.25;4987511;28;9302;-70
2021/12/30 06:25:28;;;;;;;;;7.33;2.67;;;;;11.67;100.00;100990.47;4987456;28;9088;-70
2021/12/30 06:27:55;;;;;;;;;6.33;2.67;;;;;11.66;100.00;100983.34;4987263;28;9246;-69
2021/12/30 06:30:22;;;;;;;;;1.67;1.67;;;;;11.64;100.00;101000.81;5002539;28;9350;-70
2021/12/30 06:32:49;;;;;;;;;1.00;1.00;;;;;11.65;100.00;100994.41;4987391;28;9253;-69
2021/12/30 06:35:15;;;;;;;;;0.67;0.67;;;;;11.69;100.00;100998.41;4987549;28;9932;-70
2021/12/30 06:37:42;;;;;;;;;1.00;1.00;;;;;11.71;100.00;100999.03;4986924;28;9160;-69
2021/12/30 06:40:11;;;;;;;;;1.00;1.00;;;;;11.71;100.00;101008.03;4987697;28;9015;-70
2021/12/30 06:42:38;;;;;;;;;1.00;0.67;;;;;11.76;100.00;101001.16;4986938;28;9178;-70
2021/12/30 06:45:05;;;;;;;;;1.00;1.00;;;;;11.76;100.00;100993.03;5001742;28;9089;-70
2021/12/30 06:47:31;;;;;;;;;0.67;0.67;;;;;11.81;100.00;101006.88;4985902;28;8984;-70
2021/12/30 06:50:01;;;;;;;;;0.00;0.00;;;;;11.83;100.00;101002.94;4987646;28;8920;-70
2021/12/30 06:52:30;;;;;;;;;0.00;0.00;;;;;11.86;100.00;101015.28;4985104;28;8954;-70
2021/12/30 06:54:56;;;;;;;;;1.75;0.50;;;;;11.89;100.00;101007.59;4986833;28;9218;-70
2021/12/30 06:57:23;;;;;;;;;0.00;0.00;;;;;11.89;100.00;101004.88;4985880;28;8931;-70
2021/12/30 06:59:49;;;;;;;;;0.00;0.00;;;;;11.94;100.00;100997.03;4987324;28;9023;-69
2021/12/30 07:02:16;;;;;;;;;2.00;2.00;;;;;11.99;100.00;100997.28;4986857;28;9012;-69
2021/12/30 07:04:43;;;;;;;;;0.00;0.00;;;;;11.98;100.00;100998.31;4986259;28;9015;-69
2021/12/30 07:07:09;;;;;;;;;1.00;1.00;;;;;11.98;100.00;101002.91;4986991;28;9634;-71
2021/12/30 07:09:36;;;;;;;;;0.00;0.00;;;;;12.00;100.00;100998.09;4987455;28;9152;-69
2021/12/30 07:12:03;;;;;;;;;0.00;0.00;;;;;12.01;100.00;100994.34;5001621;28;9874;-68
2021/12/30 07:14:29;;;;;;;;;1.00;1.00;;;;;12.04;100.00;101003.97;4986198;28;10067;-68
2021/12/30 07:16:56;;;;;;;;;1.00;0.00;;;;;12.06;100.00;101020.91;4986767;28;9051;-69
2021/12/30 07:19:22;;;;;;;;;0.67;0.67;;;;;12.07;100.00;101017.16;4987329;28;9130;-68
2021/12/30 07:21:50;;;;;;;;;1.67;1.00;;;;;12.08;100.00;101016.97;4987087;28;8930;-69
2021/12/30 07:24:20;;;;;;;;;0.33;0.33;;;;;12.09;100.00;101018.63;4987217;28;8895;-69
2021/12/30 07:26:48;;;;;;;;;0.00;0.00;;;;;12.11;100.00;101032.84;4986062;28;8919;-68
2021/12/30 07:29:15;;;;;;;;;0.25;0.25;;;;;12.10;100.00;101028.47;5001351;28;9869;-68
2021/12/30 07:31:41;;;;;;;;;0.00;0.00;;;;;12.09;100.00;101042.22;4987117;28;8952;-68
2021/12/30 07:34:08;;;;;;;;;2.00;1.00;;;;;12.10;100.00;101035.75;5001490;28;8918;-68
2021/12/30 07:36:35;;;;;;;;;1.00;1.00;;;;;12.06;100.00;101039.91;4986049;28;9126;-68
2021/12/30 07:39:02;;;;;;;;;0.33;0.33;;;;;12.02;100.00;101058.44;4990808;28;9014;-68
2021/12/30 07:41:29;;;;;;;;;1.00;1.00;;;;;12.00;100.00;101047.78;4990881;28;9758;-68
2021/12/30 07:43:55;;;;;;;;;1.67;1.33;;;;;11.97;100.00;101052.75;4990649;28;8884;-69
2021/12/30 07:46:22;;;;;;;;;2.00;2.00;;;;;11.94;100.00;101064.00;4990193;28;9081;-68
2021/12/30 07:48:48;;;;;;;;;2.00;2.00;;;;;11.90;100.00;101073.56;4990312;28;9079;-69
2021/12/30 07:51:15;;;;;;;;;2.33;2.33;;;;;11.89;100.00;101074.56;4990143;28;9243;-70
2021/12/30 07:53:42;;;;;;;;;0.33;0.33;;;;;11.90;100.00;101079.84;4990805;28;9227;-69
2021/12/30 07:56:08;;;;;;;;;2.00;2.00;;;;;11.87;100.00;101074.75;4990172;28;9073;-69
2021/12/30 07:58:35;;;;;;;;;2.00;0.67;;;;;11.88;100.00;101081.88;5003818;28;9267;-69
2021/12/30 08:01:02;;;;;;;;;2.00;2.00;;;;;11.89;100.00;101069.16;4989328;28;9081;-69
2021/12/30 08:03:29;;;;;;;;;3.33;1.67;;;;;11.88;100.00;101064.75;4988678;28;9179;-68
2021/12/30 08:05:55;;;;;;;;;2.00;1.00;;;;;11.88;100.00;101073.72;5004221;28;9274;-68
2021/12/30 08:08:22;;;;;;;;;1.67;1.67;;;;;11.87;100.00;101058.50;4990452;28;8996;-69
2021/12/30 08:10:49;;;;;;;;;1.00;1.00;;;;;11.87;100.00;101068.50;4990231;28;9386;-69
2021/12/30 08:13:15;;;;;;;;;2.00;2.00;;;;;11.86;100.00;101064.94;5005240;28;9177;-69
2021/12/30 08:15:43;;;;;;;;;3.67;2.00;;;;;11.86;100.00;101074.97;4990146;28;9059;-69
2021/12/30 08:18:10;;;;;;;;;2.00;2.00;;;;;11.87;100.00;101069.34;4989991;28;9169;-69
2021/12/30 08:20:36;;;;;;;;;1.00;1.00;;;;;11.87;100.00;101071.22;4990272;28;9235;-70
2021/12/30 08:23:03;;;;;;;;;3.00;2.67;;;;;11.88;100.00;101068.31;4990171;28;9062;-69
2021/12/30 08:25:29;;;;;;;;;0.00;0.00;;;;;11.85;100.00;101071.41;4990048;28;9297;-69
2021/12/30 08:27:56;;;;;;;;;2.00;2.00;;;;;11.85;100.00;101082.25;4989832;28;8974;-69
2021/12/30 08:30:23;;;;;;;;;1.00;1.00;;;;;11.86;100.00;101083.09;4990178;28;9162;-69
2021/12/30 08:32:51;;;;;;;;;2.00;2.00;;;;;11.85;100.00;101082.25;4989063;28;9249;-69
2021/12/30 08:35:21;;;;;;;;;2.00;2.00;;;;;11.84;100.00;101077.88;4989113;28;9172;-69
2021/12/30 08:37:48;;;;;;;;;8.33;2.00;;;;;11.84;100.00;101071.59;4988287;28;9158;-69
2021/12/30 08:40:15;;;;;;;;;3.67;2.00;;;;;11.84;100.00;101083.28;4989775;28;9173;-69
2021/12/30 08:42:43;;;;;;;;;7.00;3.33;;;;;11.83;100.00;101091.63;4989741;28;9983;-69
2021/12/30 08:45:10;;;;;;;;;2.00;2.00;;;;;11.81;100.00;101090.97;4988322;28;10064;-69
2021/12/30 08:47:38;;;;;;;;;3.00;3.00;;;;;11.80;100.00;101103.69;4988597;28;10080;-69
2021/12/30 08:50:07;;;;;;;;;4.33;3.00;;;;;11.79;100.00;101118.28;4989483;28;9361;-69
2021/12/30 08:52:34;;;;;;;;;6.67;4.33;;;;;11.78;100.00;101107.59;4989566;28;9387;-70
2021/12/30 08:55:04;;;;;;;;;9.33;4.00;;;;;11.79;100.00;101107.44;4989076;28;9349;-69
2021/12/30 08:57:31;;;;;;;;;3.67;3.33;;;;;11.79;100.00;101128.31;4988525;28;9238;-69
2021/12/30 08:59:58;;;;;;;;;5.33;3.67;;;;;11.77;100.00;101120.31;4989516;28;9224;-69
2021/12/30 09:02:24;;;;;;;;;4.00;4.00;;;;;11.79;100.00;101122.88;4988625;28;9247;-70
2021/12/30 09:04:51;;;;;;;;;2.33;2.00;;;;;11.79;100.00;101126.44;4989246;28;9250;-69
2021/12/30 09:07:18;;;;;;;;;6.00;4.00;;;;;11.79;100.00;101129.16;4988376;28;9068;-69
2021/12/30 09:09:45;;;;;;;;;6.00;3.00;;;;;11.77;100.00;101133.88;4988552;28;9251;-69
2021/12/30 09:12:14;;;;;;;;;6.00;5.00;;;;;11.79;100.00;101128.31;4989354;28;9223;-69
2021/12/30 09:14:40;;;;;;;;;11.33;4.67;;;;;11.79;100.00;101148.13;4989042;28;9342;-69
2021/12/30 09:17:07;;;;;;;;;4.33;3.67;;;;;11.77;100.00;101141.19;4988528;28;9380;-70
2021/12/30 09:19:33;;;;;;;;;4.00;4.00;;;;;11.77;100.00;101144.75;4988655;28;9595;-69
2021/12/30 09:22:00;;;;;;;;;5.00;4.33;;;;;11.78;100.00;101148.28;4988590;28;9344;-69
2021/12/30 09:24:27;;;;;;;;;6.75;6.75;;;;;11.77;100.00;101169.16;5003865;28;9448;-69
2021/12/30 09:26:53;;;;;;;;;5.00;4.33;;;;;11.75;100.00;101159.53;5003886;28;9505;-69
2021/12/30 09:29:20;;;;;;;;;7.00;4.33;;;;;11.79;100.00;101163.56;4988198;28;9508;-69
2021/12/30 09:31:50;;;;;;;;;5.67;4.33;;;;;11.83;100.00;101163.00;4987906;28;9380;-69
2021/12/30 09:34:17;;;;;;;;;6.00;3.00;;;;;11.85;100.00;101149.25;4988609;28;10000;-69
2021/12/30 09:36:43;;;;;;;;;5.00;2.00;;;;;11.84;100.00;101159.25;4988590;28;10008;-69
2021/12/30 09:39:12;;;;;;;;;2.00;1.67;;;;;11.88;100.00;101152.41;4988634;28;10030;-70
2021/12/30 09:41:40;;;;;;;;;4.33;2.00;;;;;11.91;100.00;101156.66;4988638;28;9333;-69
2021/12/30 09:44:08;;;;;;;;;5.00;4.00;;;;;11.92;100.00;101169.19;4988741;28;9417;-69
2021/12/30 09:46:36;;;;;;;;;4.00;3.00;;;;;11.92;100.00;101178.16;4988064;28;9264;-69
2021/12/30 09:49:05;;;;;;;;;5.67;4.00;;;;;11.93;100.00;101187.13;4988062;28;9777;-69
2021/12/30 09:51:32;;;;;;;;;4.33;1.33;;;;;11.91;100.00;101200.91;4987249;28;9349;-70
2021/12/30 09:54:00;;;;;;;;;5.67;4.00;;;;;11.92;100.00;101193.59;4985815;28;9382;-69
2021/12/30 09:56:29;;;;;;;;;5.00;4.33;;;;;11.90;100.00;101201.09;4987303;28;9302;-69
2021/12/30 09:58:56;;;;;;;;;5.33;4.00;;;;;11.88;100.00;101194.97;4987582;28;9159;-70
2021/12/30 10:01:23;;;;;;;;;4.33;2.00;;;;;11.86;100.00;101206.03;4985543;28;9247;-69
2021/12/30 10:03:55;;;;;;;;;6.67;3.00;;;;;11.85;100.00;101207.06;4988232;28;9308;-70
2021/12/30 10:06:22;;;;;;;;;7.67;4.33;;;;;11.85;100.00;101220.63;4987468;28;9259;-69
2021/12/30 10:08:59;;;;;;;;;5.00;3.00;;;;;11.86;100.00;101219.59;4987225;28;9249;-69
2021/12/30 10:11:26;;;;;;;;;2.00;2.00;;;;;11.90;100.00;101225.50;4987255;28;9240;-69
2021/12/30 10:14:02;;;;;;;;;3.67;3.33;;;;;11.88;100.00;101220.25;4987929;28;9224;-70
2021/12/30 10:16:28;;;;;;;;;4.33;4.33;;;;;11.89;100.00;101204.81;5001695;28;9197;-70
2021/12/30 10:19:05;;;;;;;;;4.00;4.00;;;;;11.90;100.00;101225.50;4987614;28;9332;-69
2021/12/30 10:21:42;;;;;;;;;4.67;3.67;;;;;11.90;100.00;101231.78;5001748;28;9242;-70
2021/12/30 10:24:11;;;;;;;;;3.33;3.00;;;;;11.91;100.00;101219.88;4987207;28;9372;-70
2021/12/30 10:26:51;;;;;;;;;5.00;4.00;;;;;11.94;100.00;101211.38;4987508;28;9217;-69
2021/12/30 10:29:18;;;;;;;;;5.33;2.00;;;;;11.99;100.00;101206.22;4999371;28;9412;-70
2021/12/30 10:31:45;;;;;;;;;6.00;2.67;;;;;11.99;100.00;101217.06;4984350;28;9369;-69
2021/12/30 10:34:12;;;;;;;;;5.67;3.00;;;;;12.02;100.00;101215.84;4987378;28;9146;-70
2021/12/30 10:36:45;;;;;;;;;3.67;3.67;;;;;12.05;100.00;101214.63;4987433;28;9082;-70
2021/12/30 10:39:26;;;;;;;;;6.00;2.00;;;;;12.07;100.00;101204.41;4985455;28;9245;-70
2021/12/30 10:42:06;;;;;;;;;6.33;3.00;;;;;12.08;100.00;101225.09;4986875;28;9248;-69
2021/12/30 10:44:54;;;;;;;;;5.00;3.00;;;;;12.10;100.00;101214.88;4987729;28;9172;-69
2021/12/30 10:47:25;;;;;;;;;5.00;3.00;;;;;12.10;100.00;101221.16;5001256;28;9077;-69
2021/12/30 10:49:57;;;;;;;;;5.00;2.67;;;;;12.12;100.00;101223.69;4987371;28;9311;-69
2021/12/30 10:52:25;;;;;;;;;2.00;2.00;;;;;12.14;100.00;101225.16;4986744;28;9242;-70
2021/12/30 10:54:52;;;;;;;;;3.00;1.67;;;;;12.17;100.00;101232.13;4985797;28;9193;-69
2021/12/30 10:57:18;;;;;;;;;2.67;2.00;;;;;12.17;100.00;101227.53;4986726;28;9255;-69
2021/12/30 10:59:49;;;;;;;;;5.67;3.00;;;;;12.18;100.00;101228.38;4987176;28;9089;-69
2021/12/30 11:02:18;;;;;;;;;1.00;1.00;;;;;12.19;100.00;101232.75;4985896;28;9392;-70
2021/12/30 11:04:46;;;;;;;;;2.33;1.33;;;;;12.24;100.00;101223.00;4986082;28;9180;-70
2021/12/30 11:07:21;;;;;;;;;3.00;2.67;;;;;12.24;100.00;101233.88;4986068;28;9147;-70
2021/12/30 11:09:55;;;;;;;;;2.67;0.33;;;;;12.27;100.00;101247.06;4985849;28;9027;-70
2021/12/30 11:12:25;;;;;;;;;1.00;1.00;;;;;12.29;100.00;101249.59;4989524;28;9690;-70
2021/12/30 11:14:53;;;;;;;;;1.33;1.33;;;;;12.31;100.00;101252.94;4991482;28;9732;-70
2021/12/30 11:17:23;;;;;;;;;2.00;2.00;;;;;12.32;100.00;101246.47;4990502;28;9043;-70
2021/12/30 11:19:53;;;;;;;;;9.00;4.00;;;;;12.31;100.00;101232.06;4990703;28;9058;-71
2021/12/30 11:22:24;;;;;;;;;4.67;2.67;;;;;12.32;100.00;101243.78;4989879;28;9243;-70
2021/12/30 11:24:54;;;;;;;;;2.33;2.33;;;;;12.31;100.00;101237.50;4990832;28;9071;-70